This demonstration page uses our WeatherBlox Daily Observations layout. Learn more.

36.19886, -115.1175

Hourly Observations for November 12, 2019

Temp ( °F °C ) Dew Point ( °F °C ) Humidity (%) Winds ( mph kmh ) Pressure ( in mb ) Visibility ( mi km ) Precip ( " mm )
12:53 am 00:53 Clear 55 12.8 24 -4.4 30 30 Calm 30.2 1023 10 16.0934 0 0
1:53 am 01:53 Clear 57 13.9 22 -5.6 26 26 WNW 5 7 30.2 1023 10 16.0934 0 0
2:53 am 02:53 Clear 53 11.7 22 -5.6 30 30 WNW 8 13 30.2 1023 10 16.0934 0 0
3:53 am 03:53 Clear 51 10.6 22 -5.6 32 32 WNW 5 7 30.2 1023 10 16.0934 0 0
4:53 am 04:53 Clear 51 10.6 23 -5 33 33 WNW 6 9 30.21 1023 10 16.0934 0 0
5:53 am 05:53 Clear 49 9.4 23 -5 36 36 Calm 30.22 1024 10 16.0934 0 0
6:53 am 06:53 Sunny 49 9.4 23 -5 36 36 WNW 3 6 30.24 1024 10 16.0934 0 0
7:53 am 07:53 Sunny 58 14.4 23 -5 26 26 NW 5 7 30.25 1024 10 16.0934 0 0
8:53 am 08:53 Sunny 63 17.2 21 -6.1 20 20 NW 6 9 30.24 1024 10 16.0934 0 0
9:53 am 09:53 Sunny 66 18.9 22 -5.6 19 19 Calm 30.23 1024 10 16.0934 0 0
10:53 am 10:53 Sunny 69 20.6 22 -5.6 17 17 Calm 30.21 1023 10 16.0934 0 0
11:53 am 11:53 Sunny 70 21.1 20 -6.7 15 15 E 5 7 30.18 1022 10 16.0934 0 0
12:53 pm 12:53 Sunny 71 21.7 20 -6.7 14 14 SSE 3 6 30.14 1021 10 16.0934 0 0
1:53 pm 13:53 Sunny 72 22.2 21 -6.1 15 15 Calm 30.11 1020 10 16.0934 0 0
2:53 pm 14:53 Sunny 72 22.2 21 -6.1 15 15 Calm 30.1 1019 10 16.0934 0 0
3:53 pm 15:53 Sunny 73 22.8 21 -6.1 14 14 Calm 30.09 1019 10 16.0934 0 0
4:53 pm 16:53 Clear 70 21.1 22 -5.6 16 16 Calm 30.09 1019 10 16.0934 0 0
5:53 pm 17:53 Clear 66 18.9 25 -3.9 21 21 Calm 30.1 1019 10 16.0934 0 0
6:53 pm 18:53 Clear 62 16.7 26 -3.3 25 25 WNW 7 11 30.11 1020 10 16.0934 0 0
7:53 pm 19:53 Clear 58 14.4 25 -3.9 28 28 NW 3 6 30.11 1020 10 16.0934 0 0
8:53 pm 20:53 Clear 58 14.4 26 -3.3 29 29 NW 7 11 30.1 1019 10 16.0934 0 0
9:53 pm 21:53 Clear 57 13.9 25 -3.9 29 29 NW 6 9 30.09 1019 10 16.0934 0 0
10:53 pm 22:53 Clear 56 13.3 25 -3.9 30 30 WNW 3 6 30.09 1019 10 16.0934 0 0
11:53 pm 23:53 Clear 56 13.3 26 -3.3 32 32 WSW 5 7 30.08 1019 10 16.0934 0 0

Powered by AerisWeather